createdAt,value
2019-04-29T00:00:27.602Z,4.00
2019-04-29T00:01:27.547Z,3.40
2019-04-29T00:02:27.414Z,4.70
2019-04-29T00:03:27.349Z,3.40
2019-04-29T00:04:27.362Z,3.00
2019-04-29T00:05:27.180Z,4.20
2019-04-29T00:06:27.173Z,3.70
2019-04-29T00:07:26.992Z,5.00
2019-04-29T00:08:26.921Z,6.10
2019-04-29T00:09:26.822Z,5.20
2019-04-29T00:10:26.750Z,4.00
2019-04-29T00:11:26.692Z,4.70
2019-04-29T00:12:26.682Z,4.00
2019-04-29T00:13:26.566Z,4.80
2019-04-29T00:14:32.963Z,5.50
2019-04-29T00:15:26.547Z,4.40
2019-04-29T00:16:26.269Z,4.10
2019-04-29T00:17:26.276Z,4.20
2019-04-29T00:18:26.052Z,4.20
2019-04-29T00:19:25.965Z,4.70
2019-04-29T00:20:25.973Z,5.20
2019-04-29T00:21:25.792Z,4.00
2019-04-29T00:22:25.746Z,5.20
2019-04-29T00:23:25.624Z,5.00
2019-04-29T00:24:25.563Z,4.50
2019-04-29T00:25:25.466Z,4.20
2019-04-29T00:26:25.471Z,4.10
2019-04-29T00:27:25.279Z,4.20
2019-04-29T00:28:25.279Z,4.00
2019-04-29T00:29:25.107Z,4.40
2019-04-29T00:30:25.036Z,4.30
2019-04-29T00:31:26.015Z,8.40
2019-04-29T00:32:24.855Z,4.70
2019-04-29T00:33:24.773Z,4.20
2019-04-29T00:34:24.705Z,3.90
2019-04-29T00:35:24.619Z,4.90
2019-04-29T00:36:24.615Z,4.40
2019-04-29T00:37:24.426Z,4.40
2019-04-29T00:38:24.432Z,4.70
2019-04-29T00:39:24.258Z,4.50
2019-04-29T00:40:24.184Z,5.50
2019-04-29T00:41:24.139Z,4.60
2019-04-29T00:42:23.996Z,4.60
2019-04-29T00:43:23.917Z,5.40
2019-04-29T00:44:23.851Z,6.30
2019-04-29T00:45:23.757Z,5.00
2019-04-29T00:46:23.772Z,5.00
2019-04-29T00:47:23.571Z,6.50
2019-04-29T00:48:24.594Z,4.90
2019-04-29T00:49:23.396Z,4.90
2019-04-29T00:50:23.325Z,4.70
2019-04-29T00:51:23.226Z,4.40
2019-04-29T00:52:23.194Z,4.80
2019-04-29T00:53:23.058Z,5.70
2019-04-29T00:54:22.972Z,6.20
2019-04-29T00:55:22.897Z,6.40
2019-04-29T00:56:22.803Z,4.80
2019-04-29T00:57:22.711Z,5.60
2019-04-29T00:58:22.734Z,5.70
2019-04-29T00:59:22.545Z,5.30
2019-04-29T01:00:22.489Z,6.40
2019-04-29T01:01:22.438Z,5.20
2019-04-29T01:02:22.283Z,5.60
2019-04-29T01:03:22.249Z,4.80
2019-04-29T01:04:22.114Z,6.60
2019-04-29T01:05:22.034Z,5.30
2019-04-29T01:06:21.986Z,5.20
2019-04-29T01:07:21.857Z,5.90
2019-04-29T01:08:21.769Z,6.40
2019-04-29T01:09:21.772Z,5.50
2019-04-29T01:10:21.602Z,5.60
2019-04-29T01:11:21.610Z,5.50
2019-04-29T01:12:21.432Z,5.40
2019-04-29T01:13:21.391Z,6.50
2019-04-29T01:14:21.260Z,5.30
2019-04-29T01:15:21.197Z,5.80
2019-04-29T01:16:21.105Z,5.30
2019-04-29T01:17:21.109Z,5.50
2019-04-29T01:18:20.911Z,7.30
2019-04-29T01:19:20.920Z,6.10
2019-04-29T01:20:20.744Z,6.40
2019-04-29T01:21:20.759Z,5.70
2019-04-29T01:22:20.570Z,6.30
2019-04-29T01:23:29.458Z,7.70
2019-04-29T01:24:20.411Z,6.20
2019-04-29T01:25:20.321Z,6.60
2019-04-29T01:26:20.281Z,7.80
2019-04-29T01:27:20.139Z,7.80
2019-04-29T01:28:20.166Z,6.20
2019-04-29T01:29:19.968Z,5.70
2019-04-29T01:30:19.887Z,6.30
2019-04-29T01:31:19.917Z,6.80
2019-04-29T01:32:19.713Z,6.10
2019-04-29T01:33:19.636Z,5.90
2019-04-29T01:34:19.590Z,7.10
2019-04-29T01:35:19.877Z,6.20
2019-04-29T01:36:19.432Z,5.90
2019-04-29T01:37:19.281Z,6.30
2019-04-29T01:38:19.313Z,6.40
2019-04-29T01:39:19.117Z,6.40
2019-04-29T01:40:19.026Z,6.70
2019-04-29T01:41:19.983Z,7.00
2019-04-29T01:42:18.852Z,6.60
2019-04-29T01:43:18.764Z,7.90
2019-04-29T01:44:18.747Z,8.40
2019-04-29T01:45:18.596Z,6.70
2019-04-29T01:46:18.524Z,6.90
2019-04-29T01:47:18.455Z,6.60
2019-04-29T01:48:18.335Z,6.80
2019-04-29T01:49:18.254Z,6.80
2019-04-29T01:50:18.279Z,6.90
2019-04-29T01:51:18.092Z,6.40
2019-04-29T01:52:18.080Z,6.60
2019-04-29T01:53:17.913Z,6.70
2019-04-29T01:54:17.831Z,6.40
2019-04-29T01:55:17.749Z,6.50
2019-04-29T01:56:17.660Z,6.40
2019-04-29T01:57:17.568Z,6.50
2019-04-29T01:58:17.504Z,6.90
2019-04-29T01:59:17.474Z,6.30
2019-04-29T02:00:17.309Z,6.80
2019-04-29T02:01:17.252Z,7.00
2019-04-29T02:02:17.136Z,6.20
2019-04-29T02:03:17.128Z,6.70
2019-04-29T02:04:16.964Z,6.70
2019-04-29T02:05:16.907Z,6.20
2019-04-29T02:06:16.872Z,6.70
2019-04-29T02:07:16.708Z,6.50
2019-04-29T02:08:16.618Z,7.50
2019-04-29T02:09:16.555Z,6.60
2019-04-29T02:10:16.444Z,6.50
2019-04-29T02:11:16.377Z,6.10
2019-04-29T02:12:16.372Z,6.20
2019-04-29T02:13:16.187Z,6.60
2019-04-29T02:14:16.103Z,7.00
2019-04-29T02:15:16.086Z,5.70
2019-04-29T02:16:15.945Z,6.00
2019-04-29T02:17:15.847Z,6.40
2019-04-29T02:18:15.802Z,5.80
2019-04-29T02:19:15.673Z,7.00
2019-04-29T02:20:15.588Z,6.40
2019-04-29T02:21:15.861Z,5.40
2019-04-29T02:22:15.418Z,5.40
2019-04-29T02:23:15.325Z,5.10
2019-04-29T02:24:15.327Z,5.30
2019-04-29T02:25:15.159Z,5.60
2019-04-29T02:26:15.071Z,6.40
2019-04-29T02:27:15.027Z,5.50
2019-04-29T02:28:14.901Z,6.30
2019-04-29T02:29:14.814Z,5.10
2019-04-29T02:30:14.761Z,5.20
2019-04-29T02:31:14.646Z,6.10
2019-04-29T02:32:14.607Z,4.90
2019-04-29T02:33:14.471Z,5.10
2019-04-29T02:34:14.483Z,5.70
2019-04-29T02:35:14.299Z,5.60
2019-04-29T02:36:14.292Z,6.40
2019-04-29T02:37:14.143Z,7.10
2019-04-29T02:38:14.099Z,5.30
2019-04-29T02:39:13.953Z,6.00
2019-04-29T02:40:13.908Z,6.90
2019-04-29T02:41:13.790Z,6.80
2019-04-29T02:42:13.770Z,6.30
2019-04-29T02:43:13.609Z,6.20
2019-04-29T02:44:13.628Z,6.10
2019-04-29T02:45:13.434Z,5.50
2019-04-29T02:46:13.352Z,5.50
2019-04-29T02:47:13.371Z,6.00
2019-04-29T02:48:13.175Z,5.50
2019-04-29T02:49:13.098Z,6.20
2019-04-29T02:50:14.075Z,5.90
2019-04-29T02:51:12.923Z,5.70
2019-04-29T02:52:12.893Z,5.90
2019-04-29T02:53:12.747Z,7.60
2019-04-29T02:54:12.772Z,5.40
2019-04-29T02:55:12.582Z,6.40
2019-04-29T02:56:14.529Z,6.80
2019-04-29T02:57:12.414Z,5.30
2019-04-29T02:58:12.791Z,5.90
2019-04-29T02:59:12.231Z,5.50
2019-04-29T03:00:12.196Z,7.10
2019-04-29T03:01:12.057Z,5.70
2019-04-29T03:02:15.523Z,5.70
2019-04-29T03:03:11.886Z,6.20
2019-04-29T03:04:11.814Z,5.80
2019-04-29T03:05:11.717Z,5.70
2019-04-29T03:06:11.726Z,5.50
2019-04-29T03:07:11.553Z,5.70
2019-04-29T03:08:13.481Z,6.00
2019-04-29T03:09:11.369Z,8.90
2019-04-29T03:10:11.349Z,6.50
2019-04-29T03:11:11.194Z,6.70
2019-04-29T03:12:11.192Z,8.40
2019-04-29T03:13:11.028Z,6.70
2019-04-29T03:14:10.963Z,6.90
2019-04-29T03:15:10.853Z,7.00
2019-04-29T03:16:10.873Z,6.70
2019-04-29T03:17:10.700Z,6.40
2019-04-29T03:18:10.684Z,6.70
2019-04-29T03:19:10.506Z,6.90
2019-04-29T03:20:10.494Z,7.20
2019-04-29T03:21:10.330Z,6.70
2019-04-29T03:22:10.336Z,7.30
2019-04-29T03:23:10.160Z,8.40
2019-04-29T03:24:10.112Z,6.80
2019-04-29T03:25:10.008Z,6.90
2019-04-29T03:26:09.900Z,7.90
2019-04-29T03:27:09.860Z,6.50
2019-04-29T03:28:09.728Z,7.10
2019-04-29T03:29:09.640Z,6.00
2019-04-29T03:30:09.831Z,6.70
2019-04-29T03:31:09.474Z,6.40
2019-04-29T03:32:09.398Z,5.90
2019-04-29T03:33:09.354Z,6.60
2019-04-29T03:34:09.211Z,6.40
2019-04-29T03:35:09.161Z,6.80
2019-04-29T03:36:09.068Z,8.00
2019-04-29T03:37:08.969Z,6.70
2019-04-29T03:38:08.867Z,7.20
2019-04-29T03:39:08.883Z,6.80
2019-04-29T03:40:08.705Z,7.00
2019-04-29T03:41:08.616Z,7.20
2019-04-29T03:42:09.560Z,8.70
2019-04-29T03:43:08.440Z,7.00
2019-04-29T03:44:08.406Z,7.90
2019-04-29T03:45:08.262Z,7.60
2019-04-29T03:46:08.181Z,7.30
2019-04-29T03:47:08.113Z,7.90
2019-04-29T03:48:08.023Z,7.80
2019-04-29T03:49:07.920Z,8.20
2019-04-29T03:50:07.963Z,8.50
2019-04-29T03:51:07.740Z,8.60
2019-04-29T03:52:07.748Z,8.50
2019-04-29T03:53:07.586Z,8.20
2019-04-29T03:54:09.502Z,7.50
2019-04-29T03:55:07.405Z,7.80
2019-04-29T03:56:07.315Z,7.50
2019-04-29T03:57:07.230Z,7.50
2019-04-29T03:58:07.239Z,7.10
2019-04-29T03:59:07.057Z,7.80
2019-04-29T04:00:06.967Z,8.60
2019-04-29T04:01:06.985Z,7.80
2019-04-29T04:02:06.800Z,7.60
2019-04-29T04:03:06.832Z,7.00
2019-04-29T04:04:06.622Z,7.30
2019-04-29T04:05:06.619Z,7.10
2019-04-29T04:06:06.453Z,7.70
2019-04-29T04:07:06.415Z,7.60
2019-04-29T04:08:06.293Z,7.90
2019-04-29T04:09:06.686Z,8.50
2019-04-29T04:10:06.110Z,7.90
2019-04-29T04:11:06.036Z,7.20
2019-04-29T04:12:05.938Z,8.30
2019-04-29T04:13:05.881Z,7.30
2019-04-29T04:14:05.786Z,7.70
2019-04-29T04:15:05.698Z,7.20
2019-04-29T04:16:05.615Z,7.70
2019-04-29T04:17:05.500Z,7.50
2019-04-29T04:18:05.434Z,6.90
2019-04-29T04:19:05.380Z,7.50
2019-04-29T04:20:05.243Z,7.50
2019-04-29T04:21:05.156Z,8.00
2019-04-29T04:22:05.093Z,7.90
2019-04-29T04:23:04.995Z,8.20
2019-04-29T04:24:04.897Z,8.20
2019-04-29T04:25:04.903Z,8.30
2019-04-29T04:26:04.726Z,7.70
2019-04-29T04:27:04.713Z,9.50
2019-04-29T04:28:04.566Z,7.90
2019-04-29T04:29:11.487Z,8.60
2019-04-29T04:30:04.382Z,10.00
2019-04-29T04:31:07.025Z,8.00
2019-04-29T04:32:04.233Z,8.30
2019-04-29T04:33:04.181Z,8.20
2019-04-29T04:34:04.038Z,9.30
2019-04-29T04:35:04.057Z,10.30
2019-04-29T04:36:03.864Z,8.60
2019-04-29T04:37:03.775Z,7.70
2019-04-29T04:38:03.806Z,7.60
2019-04-29T04:39:03.609Z,7.70
2019-04-29T04:40:03.529Z,7.20
2019-04-29T04:41:03.502Z,7.10
2019-04-29T04:42:03.358Z,7.30
2019-04-29T04:43:03.320Z,7.70
2019-04-29T04:44:03.178Z,8.10
2019-04-29T04:45:03.195Z,7.90
2019-04-29T04:46:03.008Z,9.70
2019-04-29T04:47:03.005Z,8.90
2019-04-29T04:48:02.854Z,8.50
2019-04-29T04:49:02.817Z,8.10
2019-04-29T04:50:02.664Z,8.00
2019-04-29T04:51:02.578Z,8.50
2019-04-29T04:52:02.494Z,8.70
2019-04-29T04:53:02.478Z,9.40
2019-04-29T04:54:02.332Z,10.40
2019-04-29T04:55:02.236Z,10.30
2019-04-29T04:56:02.165Z,8.70
2019-04-29T04:57:02.163Z,9.20
2019-04-29T04:58:02.007Z,8.30
2019-04-29T04:59:01.897Z,8.40
2019-04-29T05:00:01.895Z,8.60
2019-04-29T05:01:01.722Z,8.80
2019-04-29T05:02:01.636Z,8.80
2019-04-29T05:03:01.614Z,9.30
2019-04-29T05:04:01.469Z,9.30
2019-04-29T05:05:01.379Z,9.50
2019-04-29T05:06:01.362Z,10.70
2019-04-29T05:07:01.223Z,8.80
2019-04-29T05:08:01.286Z,9.90
2019-04-29T05:09:01.038Z,9.10
2019-04-29T05:10:01.065Z,9.30
2019-04-29T05:11:00.868Z,8.40
2019-04-29T05:12:00.873Z,10.90
2019-04-29T05:13:00.717Z,8.80
2019-04-29T05:14:00.678Z,8.70
2019-04-29T05:15:00.527Z,8.90
2019-04-29T05:16:00.440Z,9.40
2019-04-29T05:17:00.493Z,8.90
2019-04-29T05:18:00.293Z,12.10
2019-04-29T05:19:00.189Z,9.30
2019-04-29T05:20:00.111Z,9.80
2019-04-29T05:21:00.018Z,9.60
2019-04-29T05:21:59.940Z,9.20
2019-04-29T05:22:59.953Z,10.10
2019-04-29T05:23:59.764Z,10.80
2019-04-29T05:24:59.692Z,9.00
2019-04-29T05:25:59.593Z,10.10
2019-04-29T05:26:59.502Z,10.20
2019-04-29T05:27:59.430Z,10.10
2019-04-29T05:28:59.377Z,14.50
2019-04-29T05:29:59.251Z,13.90
2019-04-29T05:30:59.166Z,14.50
2019-04-29T05:31:59.091Z,14.70
2019-04-29T05:32:59.164Z,14.60
2019-04-29T05:33:58.927Z,13.40
2019-04-29T05:34:58.825Z,12.40
2019-04-29T05:36:01.838Z,11.10
2019-04-29T05:36:58.683Z,13.00
2019-04-29T05:37:58.648Z,10.70
2019-04-29T05:38:58.631Z,10.00
2019-04-29T05:39:58.407Z,9.40
2019-04-29T05:40:58.339Z,9.20
2019-04-29T05:41:58.408Z,8.90
2019-04-29T05:42:58.160Z,8.10
2019-04-29T05:43:58.146Z,7.80
2019-04-29T05:44:58.020Z,7.40
2019-04-29T05:45:57.905Z,7.30
2019-04-29T05:46:57.820Z,6.80
2019-04-29T05:47:58.665Z,7.10
2019-04-29T05:48:57.675Z,6.80
2019-04-29T05:49:57.638Z,7.50
2019-04-29T05:50:57.496Z,7.50
2019-04-29T05:52:01.505Z,7.20
2019-04-29T05:52:57.451Z,7.70
2019-04-29T05:53:57.259Z,7.90
2019-04-29T05:54:57.157Z,9.40
2019-04-29T05:55:57.270Z,7.80
2019-04-29T05:56:57.000Z,7.80
2019-04-29T05:58:02.829Z,7.70
2019-04-29T05:58:56.912Z,7.30
2019-04-29T05:59:56.750Z,7.20
2019-04-29T06:00:56.675Z,7.60
2019-04-29T06:01:56.696Z,7.40
2019-04-29T06:02:56.510Z,7.60
2019-04-29T06:03:56.441Z,7.60
2019-04-29T06:04:56.507Z,7.60
2019-04-29T06:05:56.270Z,7.10
2019-04-29T06:06:56.181Z,7.20
2019-04-29T06:08:00.452Z,7.20
2019-04-29T06:08:56.029Z,6.80
2019-04-29T06:09:55.939Z,7.00
2019-04-29T06:10:55.936Z,7.00
2019-04-29T06:11:55.779Z,7.20
2019-04-29T06:12:55.696Z,6.80
2019-04-29T06:13:55.785Z,9.00
2019-04-29T06:14:55.591Z,7.20
2019-04-29T06:15:55.457Z,7.50
2019-04-29T06:16:57.473Z,7.50
2019-04-29T06:17:55.293Z,7.80
2019-04-29T06:19:00.308Z,7.20
2019-04-29T06:19:55.126Z,7.50
2019-04-29T06:21:08.406Z,7.20
2019-04-29T06:21:55.019Z,6.90
2019-04-29T06:22:55.071Z,7.10
2019-04-29T06:23:59.226Z,7.10
2019-04-29T06:24:54.904Z,7.10
2019-04-29T06:25:54.648Z,6.60
2019-04-29T06:26:54.608Z,7.30
2019-04-29T06:27:54.498Z,7.00
2019-04-29T06:28:54.449Z,6.40
2019-04-29T06:29:54.322Z,6.90
2019-04-29T06:30:54.242Z,6.50
2019-04-29T06:31:54.233Z,6.50
2019-04-29T06:32:54.082Z,7.60
2019-04-29T06:33:54.028Z,7.20
2019-04-29T06:34:54.049Z,7.00
2019-04-29T06:35:56.947Z,7.40
2019-04-29T06:36:53.768Z,6.80
2019-04-29T06:37:53.861Z,6.80
2019-04-29T06:38:54.413Z,6.90
2019-04-29T06:39:53.669Z,7.10
2019-04-29T06:40:53.446Z,7.00
2019-04-29T06:41:53.365Z,6.50
2019-04-29T06:42:55.115Z,8.10
2019-04-29T06:43:56.011Z,6.30
2019-04-29T06:44:53.150Z,6.90
2019-04-29T06:45:53.095Z,7.30
2019-04-29T06:46:54.608Z,7.40
2019-04-29T06:47:52.889Z,6.50
2019-04-29T06:48:52.910Z,7.00
2019-04-29T06:49:52.802Z,7.30
2019-04-29T06:50:52.667Z,6.70
2019-04-29T06:51:52.586Z,8.60
2019-04-29T06:52:52.494Z,6.90
2019-04-29T06:53:52.540Z,6.70
2019-04-29T06:54:52.351Z,6.80
2019-04-29T06:55:52.260Z,6.90
2019-04-29T06:56:52.171Z,7.60
2019-04-29T06:57:52.095Z,8.20
2019-04-29T06:58:52.156Z,6.90
2019-04-29T06:59:54.641Z,7.10
2019-04-29T07:00:55.971Z,7.00
2019-04-29T07:01:51.971Z,8.00
2019-04-29T07:02:51.756Z,8.00
2019-04-29T07:03:52.031Z,7.10
2019-04-29T07:04:51.563Z,8.30
2019-04-29T07:05:51.741Z,7.90
2019-04-29T07:06:57.556Z,7.20
2019-04-29T07:07:51.307Z,7.90
2019-04-29T07:08:51.412Z,7.50
2019-04-29T07:09:51.160Z,8.90
2019-04-29T07:10:51.074Z,10.10
2019-04-29T07:11:51.013Z,9.80
2019-04-29T07:12:50.913Z,10.00
2019-04-29T07:13:53.424Z,15.30
2019-04-29T07:14:50.873Z,11.70
2019-04-29T07:15:50.683Z,11.30
2019-04-29T07:16:51.001Z,16.30
2019-04-29T07:17:50.541Z,10.40
2019-04-29T07:18:53.558Z,9.10
2019-04-29T07:19:50.479Z,9.70
2019-04-29T07:20:50.286Z,10.40
2019-04-29T07:21:53.298Z,10.80
2019-04-29T07:22:50.164Z,10.80
2019-04-29T07:23:50.055Z,11.50
2019-04-29T07:24:49.992Z,11.00
2019-04-29T07:25:49.906Z,12.00
2019-04-29T07:26:50.511Z,10.30
2019-04-29T07:27:49.743Z,10.80
2019-04-29T07:28:53.285Z,10.40
2019-04-29T07:29:49.600Z,10.40
2019-04-29T07:31:01.174Z,12.30
2019-04-29T07:31:49.436Z,10.30
2019-04-29T07:32:49.356Z,10.10
2019-04-29T07:33:49.332Z,10.10
2019-04-29T07:34:52.527Z,11.30
2019-04-29T07:35:49.669Z,8.60
2019-04-29T07:36:49.154Z,10.80
2019-04-29T07:37:48.978Z,10.10
2019-04-29T07:38:51.268Z,10.30
2019-04-29T07:39:48.981Z,10.70
2019-04-29T07:40:48.745Z,10.30
2019-04-29T07:41:49.479Z,10.00
2019-04-29T07:42:48.772Z,11.20
2019-04-29T07:43:48.524Z,10.60
2019-04-29T07:44:48.832Z,12.00
2019-04-29T07:45:48.579Z,12.70
2019-04-29T07:46:56.749Z,11.10
2019-04-29T07:47:56.312Z,12.10
2019-04-29T07:49:00.728Z,11.80
2019-04-29T07:49:51.415Z,12.80
2019-04-29T07:50:48.004Z,13.60
2019-04-29T07:51:47.917Z,12.30
2019-04-29T07:52:49.951Z,13.10
2019-04-29T07:53:47.812Z,13.40
2019-04-29T07:54:52.167Z,14.50
2019-04-29T07:55:47.664Z,12.70
2019-04-29T07:56:47.528Z,14.20
2019-04-29T07:57:47.811Z,15.40
2019-04-29T07:58:48.667Z,18.80
2019-04-29T07:59:47.302Z,15.30
2019-04-29T08:00:48.811Z,16.60
2019-04-29T08:01:47.160Z,17.80
2019-04-29T08:02:47.079Z,16.40
2019-04-29T08:03:47.172Z,21.40
2019-04-29T08:04:46.929Z,20.30
2019-04-29T08:05:47.032Z,19.60
2019-04-29T08:06:46.782Z,22.50
2019-04-29T08:07:46.883Z,17.60
2019-04-29T08:08:54.706Z,18.70
2019-04-29T08:09:46.693Z,17.60
2019-04-29T08:10:55.949Z,18.00
2019-04-29T08:11:46.408Z,18.60
2019-04-29T08:12:46.506Z,19.10
2019-04-29T08:13:46.264Z,18.50
2019-04-29T08:14:46.187Z,17.10
2019-04-29T08:15:46.149Z,19.30
2019-04-29T08:16:46.039Z,20.60
2019-04-29T08:17:45.967Z,18.40
2019-04-29T08:18:49.566Z,18.00
2019-04-29T08:19:45.821Z,17.60
2019-04-29T08:20:45.771Z,18.10
2019-04-29T08:21:49.591Z,18.60
2019-04-29T08:22:45.598Z,21.30
2019-04-29T08:23:45.536Z,18.80
2019-04-29T08:24:46.038Z,17.90
2019-04-29T08:25:45.405Z,19.00
2019-04-29T08:26:47.678Z,20.60
2019-04-29T08:27:45.232Z,18.00
2019-04-29T08:28:45.163Z,18.10
2019-04-29T08:29:45.183Z,15.70
2019-04-29T08:30:45.761Z,18.00
2019-04-29T08:31:44.943Z,17.10
2019-04-29T08:32:44.877Z,17.40
2019-04-29T08:33:46.738Z,20.10
2019-04-29T08:34:44.731Z,16.90
2019-04-29T08:35:46.753Z,17.00
2019-04-29T08:36:44.586Z,18.30
2019-04-29T08:37:44.506Z,18.10
2019-04-29T08:38:44.442Z,17.80
2019-04-29T08:39:44.360Z,18.10
2019-04-29T08:40:45.072Z,19.20
2019-04-29T08:41:44.225Z,16.90
2019-04-29T08:42:46.821Z,18.40
2019-04-29T08:43:44.076Z,19.30
2019-04-29T08:44:44.008Z,18.30
2019-04-29T08:45:43.977Z,17.90
2019-04-29T08:46:49.976Z,18.60
2019-04-29T08:47:43.803Z,21.40
2019-04-29T08:48:45.867Z,16.70
2019-04-29T08:49:43.646Z,18.50
2019-04-29T08:50:43.718Z,17.20
2019-04-29T08:51:43.505Z,20.20
2019-04-29T08:52:43.431Z,21.30
2019-04-29T08:53:43.497Z,19.60
2019-04-29T08:54:43.284Z,20.30
2019-04-29T08:55:43.229Z,20.70
2019-04-29T08:57:01.757Z,16.90
2019-04-29T08:57:43.070Z,18.90
2019-04-29T08:58:44.409Z,18.60
2019-04-29T08:59:42.933Z,19.90
2019-04-29T09:00:42.895Z,15.30
2019-04-29T09:01:42.784Z,16.60
2019-04-29T09:02:47.345Z,16.30
2019-04-29T09:03:42.644Z,11.70
2019-04-29T09:04:53.364Z,15.50
2019-04-29T09:05:46.136Z,16.80
2019-04-29T09:06:42.451Z,15.00
2019-04-29T09:07:42.362Z,18.70
2019-04-29T09:08:54.146Z,16.70
2019-04-29T09:09:42.225Z,17.90
2019-04-29T09:10:42.154Z,16.50
2019-04-29T09:11:43.644Z,13.60
2019-04-29T09:12:42.192Z,13.10
2019-04-29T09:13:41.935Z,9.80
2019-04-29T09:14:41.905Z,9.00
2019-04-29T09:15:41.798Z,11.00
2019-04-29T09:16:41.755Z,10.30
2019-04-29T09:17:41.700Z,9.80
2019-04-29T09:18:41.603Z,13.20
2019-04-29T09:19:41.620Z,12.00
2019-04-29T09:20:41.448Z,12.00
2019-04-29T09:21:41.388Z,14.70
2019-04-29T09:22:41.438Z,13.40
2019-04-29T09:23:41.233Z,11.20
2019-04-29T09:24:43.598Z,11.70
2019-04-29T09:25:41.103Z,12.40
2019-04-29T09:26:41.038Z,11.70
2019-04-29T09:27:45.058Z,14.10
2019-04-29T09:28:40.885Z,13.20
2019-04-29T09:29:40.808Z,13.70
2019-04-29T09:30:40.739Z,13.20
2019-04-29T09:31:40.680Z,12.50
2019-04-29T09:32:40.585Z,11.20
2019-04-29T09:33:44.120Z,13.50
2019-04-29T09:34:40.442Z,12.80
2019-04-29T09:35:40.635Z,12.50
2019-04-29T09:36:43.991Z,12.90
2019-04-29T09:37:40.212Z,11.70
2019-04-29T09:38:40.135Z,12.40
2019-04-29T09:39:43.444Z,11.60
2019-04-29T09:40:39.985Z,12.20
2019-04-29T09:41:39.926Z,11.50
2019-04-29T09:42:39.929Z,14.10
2019-04-29T09:43:39.768Z,13.20
2019-04-29T09:44:42.851Z,15.60
2019-04-29T09:45:39.626Z,10.50
2019-04-29T09:46:39.560Z,11.90
2019-04-29T09:47:39.470Z,12.90
2019-04-29T09:48:39.561Z,15.60
2019-04-29T09:49:39.322Z,15.50
2019-04-29T09:50:40.874Z,21.10
2019-04-29T09:51:39.197Z,13.40
2019-04-29T09:52:39.109Z,12.10
2019-04-29T09:53:39.035Z,12.80
2019-04-29T09:54:38.959Z,16.20
2019-04-29T09:55:40.113Z,17.60
2019-04-29T09:56:38.838Z,16.50
2019-04-29T09:57:38.736Z,21.00
2019-04-29T09:58:38.666Z,20.30
2019-04-29T09:59:38.640Z,21.40
2019-04-29T10:00:40.801Z,21.60
2019-04-29T10:01:38.467Z,20.80
2019-04-29T10:02:38.440Z,18.70
2019-04-29T10:03:38.292Z,18.90
2019-04-29T10:04:38.233Z,18.20
2019-04-29T10:05:38.144Z,17.20
2019-04-29T10:06:38.278Z,15.30
2019-04-29T10:07:37.995Z,18.20
2019-04-29T10:08:38.053Z,17.70
2019-04-29T10:09:37.842Z,18.80
2019-04-29T10:10:37.782Z,16.70
2019-04-29T10:11:37.709Z,16.40
2019-04-29T10:12:37.625Z,15.50
2019-04-29T10:13:37.550Z,13.60
2019-04-29T10:14:37.508Z,14.30
2019-04-29T10:15:37.400Z,13.70
2019-04-29T10:16:37.526Z,16.40
2019-04-29T10:17:37.252Z,12.90
2019-04-29T10:18:37.182Z,12.10
2019-04-29T10:19:37.120Z,15.80
2019-04-29T10:20:37.035Z,12.40
2019-04-29T10:21:37.003Z,13.80
2019-04-29T10:22:36.918Z,11.70
2019-04-29T10:23:36.819Z,12.30
2019-04-29T10:24:36.755Z,12.90
2019-04-29T10:25:36.734Z,13.30
2019-04-29T10:26:36.670Z,12.00
2019-04-29T10:27:36.544Z,13.00
2019-04-29T10:28:36.461Z,13.20
2019-04-29T10:29:36.379Z,13.20
2019-04-29T10:30:36.314Z,11.90
2019-04-29T10:31:36.225Z,14.50
2019-04-29T10:32:37.878Z,9.60
2019-04-29T10:33:36.083Z,11.70
2019-04-29T10:34:36.001Z,11.70
2019-04-29T10:35:35.925Z,14.20
2019-04-29T10:36:35.859Z,14.50
2019-04-29T10:37:35.792Z,13.10
2019-04-29T10:38:35.703Z,14.80
2019-04-29T10:39:35.625Z,16.80
2019-04-29T10:40:35.568Z,24.60
2019-04-29T10:41:36.076Z,10.30
2019-04-29T10:42:35.430Z,10.30
2019-04-29T10:43:35.846Z,8.80
2019-04-29T10:44:37.455Z,10.10
2019-04-29T10:45:35.188Z,9.50
2019-04-29T10:46:35.130Z,10.30
2019-04-29T10:47:35.062Z,9.60
2019-04-29T10:48:34.977Z,13.10
2019-04-29T10:49:39.128Z,10.40
2019-04-29T10:50:34.835Z,10.50
2019-04-29T10:51:34.749Z,11.00
2019-04-29T10:52:38.683Z,9.80
2019-04-29T10:53:34.666Z,13.30
2019-04-29T10:54:34.523Z,11.40
2019-04-29T10:55:34.475Z,11.80
2019-04-29T10:56:35.303Z,10.50
2019-04-29T10:57:34.330Z,11.20
2019-04-29T10:58:35.670Z,11.10
2019-04-29T10:59:36.070Z,11.00
2019-04-29T11:00:34.070Z,10.00
2019-04-29T11:01:34.108Z,11.00
2019-04-29T11:02:33.954Z,10.30
2019-04-29T11:03:33.866Z,10.40
2019-04-29T11:04:36.337Z,10.80
2019-04-29T11:05:33.703Z,8.90
2019-04-29T11:06:35.848Z,10.00
2019-04-29T11:07:33.766Z,9.50
2019-04-29T11:08:33.742Z,9.80
2019-04-29T11:09:33.407Z,10.10
2019-04-29T11:10:33.359Z,8.90
2019-04-29T11:11:36.224Z,9.90
2019-04-29T11:12:33.203Z,10.30
2019-04-29T11:13:33.126Z,10.70
2019-04-29T11:14:37.252Z,10.60
2019-04-29T11:15:33.179Z,10.00
2019-04-29T11:16:45.954Z,9.80
2019-04-29T11:17:35.064Z,10.80
2019-04-29T11:18:32.788Z,10.10
2019-04-29T11:19:35.076Z,9.30
2019-04-29T11:20:32.796Z,9.50
2019-04-29T11:21:32.531Z,10.70
2019-04-29T11:22:33.946Z,10.20
2019-04-29T11:23:32.410Z,9.50
2019-04-29T11:24:32.530Z,10.20
2019-04-29T11:25:32.492Z,10.60
2019-04-29T11:26:32.168Z,11.40
2019-04-29T11:27:32.106Z,11.00
2019-04-29T11:28:32.238Z,10.80
2019-04-29T11:29:31.948Z,12.10
2019-04-29T11:30:39.299Z,10.60
2019-04-29T11:31:31.917Z,10.80
2019-04-29T11:32:31.744Z,10.20
2019-04-29T11:33:31.657Z,10.50
2019-04-29T11:34:33.374Z,10.50
2019-04-29T11:35:31.516Z,9.20
2019-04-29T11:36:34.967Z,8.50
2019-04-29T11:37:31.409Z,8.10
2019-04-29T11:38:33.330Z,7.90
2019-04-29T11:39:31.239Z,7.90
2019-04-29T11:40:43.188Z,9.20
2019-04-29T11:41:31.094Z,9.30
2019-04-29T11:42:31.958Z,9.60
2019-04-29T11:43:31.149Z,9.40
2019-04-29T11:44:31.943Z,10.30
2019-04-29T11:45:33.890Z,11.00
2019-04-29T11:46:30.734Z,10.20
2019-04-29T11:47:30.734Z,10.50
2019-04-29T11:48:30.595Z,10.30
2019-04-29T11:49:30.535Z,10.40
2019-04-29T11:50:30.444Z,11.10
2019-04-29T11:51:34.173Z,10.10
2019-04-29T11:52:30.293Z,10.30
2019-04-29T11:53:30.260Z,14.60
2019-04-29T11:54:30.146Z,13.70
2019-04-29T11:55:30.170Z,12.00
2019-04-29T11:56:29.994Z,11.40
2019-04-29T11:57:40.387Z,10.80
2019-04-29T11:58:29.858Z,11.50
2019-04-29T11:59:29.889Z,12.20
2019-04-29T12:00:29.874Z,12.20
2019-04-29T12:01:38.501Z,11.90
2019-04-29T12:02:44.595Z,12.90
2019-04-29T12:03:29.494Z,12.70
2019-04-29T12:04:33.498Z,12.60
2019-04-29T12:05:29.412Z,12.90
2019-04-29T12:06:29.265Z,12.70
2019-04-29T12:07:32.611Z,12.30
2019-04-29T12:08:29.103Z,11.60
2019-04-29T12:09:30.475Z,11.40
2019-04-29T12:10:28.935Z,11.50
2019-04-29T12:11:35.776Z,10.70
2019-04-29T12:12:28.789Z,10.20
2019-04-29T12:13:28.891Z,11.10
2019-04-29T12:14:28.643Z,10.00
2019-04-29T12:15:28.878Z,10.60
2019-04-29T12:16:28.509Z,11.40
2019-04-29T12:17:28.453Z,13.20
2019-04-29T12:18:28.356Z,11.50
2019-04-29T12:19:28.264Z,10.90
2019-04-29T12:20:28.289Z,11.50
2019-04-29T12:21:28.113Z,11.10
2019-04-29T12:22:30.910Z,12.20
2019-04-29T12:23:28.137Z,11.20
2019-04-29T12:24:27.880Z,11.00
2019-04-29T12:25:29.285Z,10.10
2019-04-29T12:26:27.729Z,10.40
2019-04-29T12:27:29.299Z,12.90
2019-04-29T12:28:27.584Z,11.90
2019-04-29T12:29:27.504Z,11.00
2019-04-29T12:30:29.940Z,10.70
2019-04-29T12:31:27.352Z,10.00
2019-04-29T12:32:27.268Z,9.80
2019-04-29T12:33:27.463Z,8.80
2019-04-29T12:34:27.122Z,8.80
2019-04-29T12:35:29.994Z,9.10
2019-04-29T12:36:28.040Z,9.80
2019-04-29T12:37:29.860Z,10.10
2019-04-29T12:38:39.378Z,10.50
2019-04-29T12:39:42.803Z,11.00
2019-04-29T12:40:26.670Z,10.50
2019-04-29T12:41:30.332Z,10.00
2019-04-29T12:42:26.514Z,11.40
2019-04-29T12:43:26.623Z,11.30
2019-04-29T12:44:35.045Z,11.00
2019-04-29T12:45:26.289Z,10.80
2019-04-29T12:46:26.405Z,10.60
2019-04-29T12:47:27.140Z,11.10
2019-04-29T12:48:26.059Z,9.30
2019-04-29T12:49:26.003Z,9.20
2019-04-29T12:50:25.949Z,9.30
2019-04-29T12:51:25.841Z,8.80
2019-04-29T12:52:25.754Z,10.20
2019-04-29T12:53:25.680Z,8.60
2019-04-29T12:54:25.615Z,9.00
2019-04-29T12:55:43.436Z,9.20
2019-04-29T12:56:26.166Z,9.90
2019-04-29T12:57:25.380Z,10.00
2019-04-29T12:58:25.811Z,10.20
2019-04-29T12:59:25.250Z,9.80
2019-04-29T13:00:25.152Z,9.60
2019-04-29T13:01:38.967Z,11.00
2019-04-29T13:02:26.382Z,10.40
2019-04-29T13:03:24.924Z,9.00
2019-04-29T13:04:27.897Z,8.00
2019-04-29T13:05:24.780Z,7.70
2019-04-29T13:06:38.304Z,8.50